sensor_id;sensor_type;location;lat;lon;timestamp;P1;durP1;ratioP1;P2;durP2;ratioP2
13263;SDS011;6700;51.988;7.646;2023-05-28T00:02:35;9.43;;;6.17;;
13263;SDS011;6700;51.988;7.646;2023-05-28T00:05:02;9.23;;;6.03;;
13263;SDS011;6700;51.988;7.646;2023-05-28T00:07:31;9.50;;;5.70;;
13263;SDS011;6700;51.988;7.646;2023-05-28T00:09:59;8.13;;;5.57;;
13263;SDS011;6700;51.988;7.646;2023-05-28T00:12:26;10.07;;;6.63;;
13263;SDS011;6700;51.988;7.646;2023-05-28T00:14:53;14.00;;;7.27;;
13263;SDS011;6700;51.988;7.646;2023-05-28T00:17:20;8.93;;;6.10;;
13263;SDS011;6700;51.988;7.646;2023-05-28T00:19:50;11.40;;;7.47;;
13263;SDS011;6700;51.988;7.646;2023-05-28T00:22:20;12.70;;;9.30;;
13263;SDS011;6700;51.988;7.646;2023-05-28T00:24:47;12.27;;;7.63;;
13263;SDS011;6700;51.988;7.646;2023-05-28T00:27:13;11.77;;;6.80;;
13263;SDS011;6700;51.988;7.646;2023-05-28T00:29:40;12.90;;;8.27;;
13263;SDS011;6700;51.988;7.646;2023-05-28T00:32:09;9.87;;;7.47;;
13263;SDS011;6700;51.988;7.646;2023-05-28T00:34:36;14.93;;;8.13;;
13263;SDS011;6700;51.988;7.646;2023-05-28T00:37:03;11.30;;;8.30;;
13263;SDS011;6700;51.988;7.646;2023-05-28T00:39:31;10.93;;;7.07;;
13263;SDS011;6700;51.988;7.646;2023-05-28T00:42:01;10.80;;;7.50;;
13263;SDS011;6700;51.988;7.646;2023-05-28T00:44:29;9.30;;;6.87;;
13263;SDS011;6700;51.988;7.646;2023-05-28T00:46:59;10.53;;;6.17;;
13263;SDS011;6700;51.988;7.646;2023-05-28T00:49:27;9.63;;;6.80;;
13263;SDS011;6700;51.988;7.646;2023-05-28T00:51:54;7.70;;;5.67;;
13263;SDS011;6700;51.988;7.646;2023-05-28T00:54:22;11.97;;;6.60;;
13263;SDS011;6700;51.988;7.646;2023-05-28T00:56:49;9.07;;;6.40;;
13263;SDS011;6700;51.988;7.646;2023-05-28T00:59:19;12.03;;;6.97;;
13263;SDS011;6700;51.988;7.646;2023-05-28T01:01:47;8.40;;;6.17;;
13263;SDS011;6700;51.988;7.646;2023-05-28T01:04:15;8.93;;;6.07;;
13263;SDS011;6700;51.988;7.646;2023-05-28T01:06:43;6.43;;;5.50;;
13263;SDS011;6700;51.988;7.646;2023-05-28T01:09:11;9.30;;;6.50;;
13263;SDS011;6700;51.988;7.646;2023-05-28T01:11:39;6.83;;;5.83;;
13263;SDS011;6700;51.988;7.646;2023-05-28T01:14:08;13.63;;;6.70;;
13263;SDS011;6700;51.988;7.646;2023-05-28T01:16:36;11.67;;;6.03;;
13263;SDS011;6700;51.988;7.646;2023-05-28T01:19:03;9.77;;;7.17;;
13263;SDS011;6700;51.988;7.646;2023-05-28T01:21:37;9.47;;;6.70;;
13263;SDS011;6700;51.988;7.646;2023-05-28T01:24:07;11.83;;;7.13;;
13263;SDS011;6700;51.988;7.646;2023-05-28T01:26:36;11.37;;;8.03;;
13263;SDS011;6700;51.988;7.646;2023-05-28T01:29:13;13.07;;;7.37;;
13263;SDS011;6700;51.988;7.646;2023-05-28T01:31:45;11.07;;;7.43;;
13263;SDS011;6700;51.988;7.646;2023-05-28T01:34:14;9.70;;;7.37;;
13263;SDS011;6700;51.988;7.646;2023-05-28T01:36:46;10.27;;;7.30;;
13263;SDS011;6700;51.988;7.646;2023-05-28T01:39:16;10.37;;;7.17;;
13263;SDS011;6700;51.988;7.646;2023-05-28T01:41:45;9.60;;;7.57;;
13263;SDS011;6700;51.988;7.646;2023-05-28T01:44:17;9.97;;;6.77;;
13263;SDS011;6700;51.988;7.646;2023-05-28T01:46:45;11.57;;;6.70;;
13263;SDS011;6700;51.988;7.646;2023-05-28T01:49:13;11.03;;;6.57;;
13263;SDS011;6700;51.988;7.646;2023-05-28T01:51:40;8.40;;;6.27;;
13263;SDS011;6700;51.988;7.646;2023-05-28T01:54:06;8.37;;;6.23;;
13263;SDS011;6700;51.988;7.646;2023-05-28T01:56:33;9.73;;;7.13;;
13263;SDS011;6700;51.988;7.646;2023-05-28T01:59:00;10.23;;;7.13;;
13263;SDS011;6700;51.988;7.646;2023-05-28T02:01:31;9.93;;;7.17;;
13263;SDS011;6700;51.988;7.646;2023-05-28T02:04:00;9.67;;;6.77;;
13263;SDS011;6700;51.988;7.646;2023-05-28T02:06:30;11.80;;;6.77;;
13263;SDS011;6700;51.988;7.646;2023-05-28T02:09:00;13.10;;;7.23;;
13263;SDS011;6700;51.988;7.646;2023-05-28T02:11:27;14.77;;;8.30;;
13263;SDS011;6700;51.988;7.646;2023-05-28T02:13:54;9.53;;;7.20;;
13263;SDS011;6700;51.988;7.646;2023-05-28T02:16:21;9.37;;;6.77;;
13263;SDS011;6700;51.988;7.646;2023-05-28T02:18:50;12.73;;;7.20;;
13263;SDS011;6700;51.988;7.646;2023-05-28T02:21:18;10.23;;;7.07;;
13263;SDS011;6700;51.988;7.646;2023-05-28T02:23:46;8.67;;;6.90;;
13263;SDS011;6700;51.988;7.646;2023-05-28T02:26:14;11.13;;;7.37;;
13263;SDS011;6700;51.988;7.646;2023-05-28T02:28:41;12.77;;;6.87;;
13263;SDS011;6700;51.988;7.646;2023-05-28T02:31:09;8.70;;;7.33;;
13263;SDS011;6700;51.988;7.646;2023-05-28T02:33:37;12.13;;;7.07;;
13263;SDS011;6700;51.988;7.646;2023-05-28T02:36:04;11.13;;;7.50;;
13263;SDS011;6700;51.988;7.646;2023-05-28T02:38:32;11.77;;;8.07;;
13263;SDS011;6700;51.988;7.646;2023-05-28T02:40:59;9.13;;;7.00;;
13263;SDS011;6700;51.988;7.646;2023-05-28T02:43:25;9.10;;;7.33;;
13263;SDS011;6700;51.988;7.646;2023-05-28T02:45:52;20.27;;;8.53;;
13263;SDS011;6700;51.988;7.646;2023-05-28T02:48:19;10.97;;;7.33;;
13263;SDS011;6700;51.988;7.646;2023-05-28T02:50:46;14.37;;;7.73;;
13263;SDS011;6700;51.988;7.646;2023-05-28T02:53:13;8.73;;;7.30;;
13263;SDS011;6700;51.988;7.646;2023-05-28T02:55:40;10.33;;;7.50;;
13263;SDS011;6700;51.988;7.646;2023-05-28T02:58:07;10.40;;;8.17;;
13263;SDS011;6700;51.988;7.646;2023-05-28T03:00:34;11.37;;;8.00;;
13263;SDS011;6700;51.988;7.646;2023-05-28T03:03:00;11.43;;;8.13;;
13263;SDS011;6700;51.988;7.646;2023-05-28T03:05:28;10.07;;;7.07;;
13263;SDS011;6700;51.988;7.646;2023-05-28T03:07:57;8.20;;;7.00;;
13263;SDS011;6700;51.988;7.646;2023-05-28T03:10:24;12.00;;;7.17;;
13263;SDS011;6700;51.988;7.646;2023-05-28T03:12:51;10.93;;;7.87;;
13263;SDS011;6700;51.988;7.646;2023-05-28T03:15:18;10.90;;;7.67;;
13263;SDS011;6700;51.988;7.646;2023-05-28T03:17:44;9.20;;;6.83;;
13263;SDS011;6700;51.988;7.646;2023-05-28T03:20:11;8.63;;;7.50;;
13263;SDS011;6700;51.988;7.646;2023-05-28T03:22:38;10.97;;;7.60;;
13263;SDS011;6700;51.988;7.646;2023-05-28T03:25:05;9.60;;;8.07;;
13263;SDS011;6700;51.988;7.646;2023-05-28T03:27:33;11.77;;;7.93;;
13263;SDS011;6700;51.988;7.646;2023-05-28T03:30:00;11.00;;;7.67;;
13263;SDS011;6700;51.988;7.646;2023-05-28T03:32:27;12.83;;;8.37;;
13263;SDS011;6700;51.988;7.646;2023-05-28T03:34:54;13.53;;;9.27;;
13263;SDS011;6700;51.988;7.646;2023-05-28T03:37:21;11.70;;;8.50;;
13263;SDS011;6700;51.988;7.646;2023-05-28T03:39:47;13.60;;;8.00;;
13263;SDS011;6700;51.988;7.646;2023-05-28T03:42:14;10.47;;;7.67;;
13263;SDS011;6700;51.988;7.646;2023-05-28T03:44:41;12.40;;;8.50;;
13263;SDS011;6700;51.988;7.646;2023-05-28T03:47:08;20.13;;;11.40;;
13263;SDS011;6700;51.988;7.646;2023-05-28T03:49:35;13.37;;;9.07;;
13263;SDS011;6700;51.988;7.646;2023-05-28T03:52:02;20.20;;;10.53;;
13263;SDS011;6700;51.988;7.646;2023-05-28T03:54:28;11.90;;;8.33;;
13263;SDS011;6700;51.988;7.646;2023-05-28T03:56:55;9.90;;;8.10;;
13263;SDS011;6700;51.988;7.646;2023-05-28T03:59:22;14.57;;;8.27;;
13263;SDS011;6700;51.988;7.646;2023-05-28T04:01:48;14.23;;;7.90;;
13263;SDS011;6700;51.988;7.646;2023-05-28T04:04:15;11.63;;;7.27;;
13263;SDS011;6700;51.988;7.646;2023-05-28T04:06:42;12.67;;;8.23;;
13263;SDS011;6700;51.988;7.646;2023-05-28T04:09:09;13.80;;;8.30;;
13263;SDS011;6700;51.988;7.646;2023-05-28T04:11:36;12.43;;;8.33;;
13263;SDS011;6700;51.988;7.646;2023-05-28T04:14:04;12.07;;;8.10;;
13263;SDS011;6700;51.988;7.646;2023-05-28T04:16:32;14.20;;;7.73;;
13263;SDS011;6700;51.988;7.646;2023-05-28T04:18:59;10.97;;;8.07;;
13263;SDS011;6700;51.988;7.646;2023-05-28T04:21:26;13.00;;;8.37;;
13263;SDS011;6700;51.988;7.646;2023-05-28T04:23:55;11.57;;;7.93;;
13263;SDS011;6700;51.988;7.646;2023-05-28T04:26:21;15.57;;;8.23;;
13263;SDS011;6700;51.988;7.646;2023-05-28T04:28:51;10.30;;;8.00;;
13263;SDS011;6700;51.988;7.646;2023-05-28T04:31:19;10.00;;;7.67;;
13263;SDS011;6700;51.988;7.646;2023-05-28T04:33:46;13.90;;;8.33;;
13263;SDS011;6700;51.988;7.646;2023-05-28T04:36:13;10.93;;;7.80;;
13263;SDS011;6700;51.988;7.646;2023-05-28T04:38:40;8.93;;;7.57;;
13263;SDS011;6700;51.988;7.646;2023-05-28T04:41:08;9.23;;;6.63;;
13263;SDS011;6700;51.988;7.646;2023-05-28T04:43:35;11.60;;;7.63;;
13263;SDS011;6700;51.988;7.646;2023-05-28T04:46:02;10.50;;;7.50;;
13263;SDS011;6700;51.988;7.646;2023-05-28T04:48:30;9.83;;;7.03;;
13263;SDS011;6700;51.988;7.646;2023-05-28T04:51:01;11.37;;;8.00;;
13263;SDS011;6700;51.988;7.646;2023-05-28T04:53:33;13.57;;;8.40;;
13263;SDS011;6700;51.988;7.646;2023-05-28T04:56:00;12.53;;;8.00;;
13263;SDS011;6700;51.988;7.646;2023-05-28T04:58:27;12.93;;;8.07;;
13263;SDS011;6700;51.988;7.646;2023-05-28T05:00:54;10.83;;;7.60;;
13263;SDS011;6700;51.988;7.646;2023-05-28T05:03:22;13.60;;;8.03;;
13263;SDS011;6700;51.988;7.646;2023-05-28T05:05:48;14.17;;;8.17;;
13263;SDS011;6700;51.988;7.646;2023-05-28T05:08:15;11.73;;;7.50;;
13263;SDS011;6700;51.988;7.646;2023-05-28T05:10:42;10.30;;;7.50;;
13263;SDS011;6700;51.988;7.646;2023-05-28T05:13:09;13.10;;;8.03;;
13263;SDS011;6700;51.988;7.646;2023-05-28T05:15:36;14.80;;;7.87;;
13263;SDS011;6700;51.988;7.646;2023-05-28T05:18:03;15.13;;;7.73;;
13263;SDS011;6700;51.988;7.646;2023-05-28T05:20:30;10.03;;;7.73;;
13263;SDS011;6700;51.988;7.646;2023-05-28T05:22:58;13.03;;;7.73;;
13263;SDS011;6700;51.988;7.646;2023-05-28T05:25:24;9.23;;;7.40;;
13263;SDS011;6700;51.988;7.646;2023-05-28T05:27:51;11.37;;;8.40;;
13263;SDS011;6700;51.988;7.646;2023-05-28T05:30:18;11.20;;;8.00;;
13263;SDS011;6700;51.988;7.646;2023-05-28T05:32:45;13.30;;;7.53;;
13263;SDS011;6700;51.988;7.646;2023-05-28T05:35:12;9.63;;;7.70;;
13263;SDS011;6700;51.988;7.646;2023-05-28T05:37:40;11.53;;;7.70;;
13263;SDS011;6700;51.988;7.646;2023-05-28T05:40:07;13.80;;;7.53;;
13263;SDS011;6700;51.988;7.646;2023-05-28T05:42:36;16.63;;;8.20;;
13263;SDS011;6700;51.988;7.646;2023-05-28T05:45:04;12.97;;;7.60;;
13263;SDS011;6700;51.988;7.646;2023-05-28T05:47:32;10.37;;;7.07;;
13263;SDS011;6700;51.988;7.646;2023-05-28T05:49:59;11.80;;;7.20;;
13263;SDS011;6700;51.988;7.646;2023-05-28T05:52:26;11.20;;;7.50;;
13263;SDS011;6700;51.988;7.646;2023-05-28T05:54:52;14.27;;;6.47;;
13263;SDS011;6700;51.988;7.646;2023-05-28T05:57:19;9.10;;;6.63;;
13263;SDS011;6700;51.988;7.646;2023-05-28T05:59:46;15.93;;;7.03;;
13263;SDS011;6700;51.988;7.646;2023-05-28T06:02:13;8.27;;;6.30;;
13263;SDS011;6700;51.988;7.646;2023-05-28T06:04:40;8.47;;;6.70;;
13263;SDS011;6700;51.988;7.646;2023-05-28T06:07:07;15.33;;;7.10;;
13263;SDS011;6700;51.988;7.646;2023-05-28T06:09:34;11.77;;;7.13;;
13263;SDS011;6700;51.988;7.646;2023-05-28T06:12:00;14.07;;;6.77;;
13263;SDS011;6700;51.988;7.646;2023-05-28T06:14:27;11.47;;;7.80;;
13263;SDS011;6700;51.988;7.646;2023-05-28T06:16:54;9.97;;;6.07;;
13263;SDS011;6700;51.988;7.646;2023-05-28T06:19:21;9.97;;;6.03;;
13263;SDS011;6700;51.988;7.646;2023-05-28T06:21:49;8.83;;;6.37;;
13263;SDS011;6700;51.988;7.646;2023-05-28T06:24:17;11.23;;;5.97;;
13263;SDS011;6700;51.988;7.646;2023-05-28T06:26:44;13.83;;;6.50;;
13263;SDS011;6700;51.988;7.646;2023-05-28T06:29:11;13.17;;;6.20;;
13263;SDS011;6700;51.988;7.646;2023-05-28T06:31:38;11.17;;;5.77;;
13263;SDS011;6700;51.988;7.646;2023-05-28T06:34:06;9.23;;;5.70;;
13263;SDS011;6700;51.988;7.646;2023-05-28T06:36:33;9.87;;;5.73;;
13263;SDS011;6700;51.988;7.646;2023-05-28T06:39:03;7.50;;;4.93;;
13263;SDS011;6700;51.988;7.646;2023-05-28T06:41:31;9.93;;;5.30;;
13263;SDS011;6700;51.988;7.646;2023-05-28T06:43:58;11.97;;;5.90;;
13263;SDS011;6700;51.988;7.646;2023-05-28T06:46:24;9.90;;;4.80;;
13263;SDS011;6700;51.988;7.646;2023-05-28T06:48:52;7.90;;;4.77;;
13263;SDS011;6700;51.988;7.646;2023-05-28T06:51:19;11.37;;;5.50;;
13263;SDS011;6700;51.988;7.646;2023-05-28T06:53:45;8.00;;;4.63;;
13263;SDS011;6700;51.988;7.646;2023-05-28T06:56:12;8.97;;;5.23;;
13263;SDS011;6700;51.988;7.646;2023-05-28T06:58:39;9.07;;;5.50;;
13263;SDS011;6700;51.988;7.646;2023-05-28T07:01:06;8.53;;;4.87;;
13263;SDS011;6700;51.988;7.646;2023-05-28T07:03:33;11.83;;;5.07;;
13263;SDS011;6700;51.988;7.646;2023-05-28T07:06:01;7.70;;;5.13;;
13263;SDS011;6700;51.988;7.646;2023-05-28T07:08:29;9.33;;;6.00;;
13263;SDS011;6700;51.988;7.646;2023-05-28T07:10:56;8.20;;;5.17;;
13263;SDS011;6700;51.988;7.646;2023-05-28T07:13:23;9.23;;;4.67;;
13263;SDS011;6700;51.988;7.646;2023-05-28T07:15:50;10.93;;;5.00;;
13263;SDS011;6700;51.988;7.646;2023-05-28T07:18:16;10.17;;;4.93;;
13263;SDS011;6700;51.988;7.646;2023-05-28T07:20:43;7.80;;;4.47;;
13263;SDS011;6700;51.988;7.646;2023-05-28T07:23:10;7.30;;;5.07;;
13263;SDS011;6700;51.988;7.646;2023-05-28T07:25:37;8.27;;;4.50;;
13263;SDS011;6700;51.988;7.646;2023-05-28T07:28:05;8.27;;;4.37;;
13263;SDS011;6700;51.988;7.646;2023-05-28T07:30:31;8.50;;;4.60;;
13263;SDS011;6700;51.988;7.646;2023-05-28T07:32:58;6.13;;;3.47;;
13263;SDS011;6700;51.988;7.646;2023-05-28T07:35:25;5.90;;;3.63;;
13263;SDS011;6700;51.988;7.646;2023-05-28T07:37:55;9.20;;;4.90;;
13263;SDS011;6700;51.988;7.646;2023-05-28T07:40:22;6.53;;;4.60;;
13263;SDS011;6700;51.988;7.646;2023-05-28T07:42:48;7.10;;;3.73;;
13263;SDS011;6700;51.988;7.646;2023-05-28T07:45:15;9.80;;;3.95;;
13263;SDS011;6700;51.988;7.646;2023-05-28T07:47:42;8.97;;;4.37;;
13263;SDS011;6700;51.988;7.646;2023-05-28T07:50:09;8.05;;;4.00;;
13263;SDS011;6700;51.988;7.646;2023-05-28T07:52:37;6.22;;;3.92;;
13263;SDS011;6700;51.988;7.646;2023-05-28T07:55:06;7.57;;;3.78;;
13263;SDS011;6700;51.988;7.646;2023-05-28T07:57:33;6.28;;;3.75;;
13263;SDS011;6700;51.988;7.646;2023-05-28T08:00:00;8.90;;;4.70;;
13263;SDS011;6700;51.988;7.646;2023-05-28T08:02:27;5.70;;;3.90;;
13263;SDS011;6700;51.988;7.646;2023-05-28T08:04:54;4.38;;;3.60;;
13263;SDS011;6700;51.988;7.646;2023-05-28T08:07:20;5.82;;;3.80;;
13263;SDS011;6700;51.988;7.646;2023-05-28T08:09:47;5.85;;;3.67;;
13263;SDS011;6700;51.988;7.646;2023-05-28T08:12:14;6.90;;;3.92;;
13263;SDS011;6700;51.988;7.646;2023-05-28T08:14:41;7.15;;;3.80;;
13263;SDS011;6700;51.988;7.646;2023-05-28T08:17:08;7.10;;;4.20;;
13263;SDS011;6700;51.988;7.646;2023-05-28T08:19:34;7.18;;;3.60;;
13263;SDS011;6700;51.988;7.646;2023-05-28T08:22:02;8.35;;;4.15;;
13263;SDS011;6700;51.988;7.646;2023-05-28T08:24:29;8.90;;;5.03;;
13263;SDS011;6700;51.988;7.646;2023-05-28T08:26:56;4.65;;;3.63;;
13263;SDS011;6700;51.988;7.646;2023-05-28T08:29:23;7.70;;;4.40;;
13263;SDS011;6700;51.988;7.646;2023-05-28T08:31:49;6.53;;;3.75;;
13263;SDS011;6700;51.988;7.646;2023-05-28T08:34:17;7.18;;;3.92;;
13263;SDS011;6700;51.988;7.646;2023-05-28T08:36:44;10.18;;;4.68;;
13263;SDS011;6700;51.988;7.646;2023-05-28T08:39:11;5.38;;;4.07;;
13263;SDS011;6700;51.988;7.646;2023-05-28T08:41:38;5.13;;;3.97;;
13263;SDS011;6700;51.988;7.646;2023-05-28T08:44:05;4.28;;;3.53;;
13263;SDS011;6700;51.988;7.646;2023-05-28T08:46:32;6.38;;;4.30;;
13263;SDS011;6700;51.988;7.646;2023-05-28T08:49:00;5.28;;;3.70;;
13263;SDS011;6700;51.988;7.646;2023-05-28T08:51:27;6.22;;;4.32;;
13263;SDS011;6700;51.988;7.646;2023-05-28T08:53:59;4.85;;;3.70;;
13263;SDS011;6700;51.988;7.646;2023-05-28T08:56:27;5.63;;;4.30;;
13263;SDS011;6700;51.988;7.646;2023-05-28T08:58:54;5.43;;;3.67;;
13263;SDS011;6700;51.988;7.646;2023-05-28T09:01:22;6.68;;;4.47;;
13263;SDS011;6700;51.988;7.646;2023-05-28T09:03:49;14.23;;;4.25;;
13263;SDS011;6700;51.988;7.646;2023-05-28T09:06:16;7.20;;;4.25;;
13263;SDS011;6700;51.988;7.646;2023-05-28T09:08:43;8.70;;;4.43;;
13263;SDS011;6700;51.988;7.646;2023-05-28T09:11:12;5.40;;;3.88;;
13263;SDS011;6700;51.988;7.646;2023-05-28T09:13:41;7.72;;;4.38;;
13263;SDS011;6700;51.988;7.646;2023-05-28T09:16:09;7.10;;;4.03;;
13263;SDS011;6700;51.988;7.646;2023-05-28T09:18:40;5.05;;;3.80;;
13263;SDS011;6700;51.988;7.646;2023-05-28T09:21:07;7.82;;;4.35;;
13263;SDS011;6700;51.988;7.646;2023-05-28T09:23:40;6.93;;;4.30;;
13263;SDS011;6700;51.988;7.646;2023-05-28T09:26:10;9.18;;;4.00;;
13263;SDS011;6700;51.988;7.646;2023-05-28T09:28:41;9.18;;;4.53;;
13263;SDS011;6700;51.988;7.646;2023-05-28T09:31:10;6.38;;;3.90;;
13263;SDS011;6700;51.988;7.646;2023-05-28T09:33:41;6.15;;;3.90;;
13263;SDS011;6700;51.988;7.646;2023-05-28T09:36:14;8.00;;;4.38;;
13263;SDS011;6700;51.988;7.646;2023-05-28T09:38:42;8.30;;;3.97;;
13263;SDS011;6700;51.988;7.646;2023-05-28T09:41:17;6.65;;;4.22;;
13263;SDS011;6700;51.988;7.646;2023-05-28T09:43:54;7.40;;;3.83;;
13263;SDS011;6700;51.988;7.646;2023-05-28T09:46:29;7.13;;;4.55;;
13263;SDS011;6700;51.988;7.646;2023-05-28T09:48:57;6.78;;;4.35;;
13263;SDS011;6700;51.988;7.646;2023-05-28T09:51:26;6.13;;;3.88;;
13263;SDS011;6700;51.988;7.646;2023-05-28T09:54:01;6.50;;;4.40;;
13263;SDS011;6700;51.988;7.646;2023-05-28T09:56:30;5.28;;;3.88;;
13263;SDS011;6700;51.988;7.646;2023-05-28T09:59:02;5.68;;;3.70;;
13263;SDS011;6700;51.988;7.646;2023-05-28T10:01:38;7.47;;;3.92;;
13263;SDS011;6700;51.988;7.646;2023-05-28T10:04:22;8.65;;;4.57;;
13263;SDS011;6700;51.988;7.646;2023-05-28T10:06:55;7.85;;;4.00;;
13263;SDS011;6700;51.988;7.646;2023-05-28T10:09:25;7.53;;;4.32;;
13263;SDS011;6700;51.988;7.646;2023-05-28T10:11:59;6.57;;;3.65;;
13263;SDS011;6700;51.988;7.646;2023-05-28T10:14:35;7.10;;;3.75;;
13263;SDS011;6700;51.988;7.646;2023-05-28T10:17:03;6.43;;;3.97;;
13263;SDS011;6700;51.988;7.646;2023-05-28T10:19:29;8.65;;;3.47;;
13263;SDS011;6700;51.988;7.646;2023-05-28T10:21:56;5.47;;;3.72;;
13263;SDS011;6700;51.988;7.646;2023-05-28T10:24:24;8.05;;;3.92;;
13263;SDS011;6700;51.988;7.646;2023-05-28T10:26:52;5.28;;;3.60;;
13263;SDS011;6700;51.988;7.646;2023-05-28T10:29:20;5.78;;;3.53;;
13263;SDS011;6700;51.988;7.646;2023-05-28T10:31:59;5.97;;;4.68;;
13263;SDS011;6700;51.988;7.646;2023-05-28T10:34:29;6.47;;;3.95;;
13263;SDS011;6700;51.988;7.646;2023-05-28T10:36:59;5.88;;;3.67;;
13263;SDS011;6700;51.988;7.646;2023-05-28T10:39:39;5.78;;;3.70;;
13263;SDS011;6700;51.988;7.646;2023-05-28T10:42:14;4.85;;;3.72;;
13263;SDS011;6700;51.988;7.646;2023-05-28T10:47:33;4.88;;;3.92;;
13263;SDS011;6700;51.988;7.646;2023-05-28T10:50:13;6.22;;;3.97;;
13263;SDS011;6700;51.988;7.646;2023-05-28T10:53:02;7.22;;;4.25;;
13263;SDS011;6700;51.988;7.646;2023-05-28T10:55:48;8.15;;;4.38;;
13263;SDS011;6700;51.988;7.646;2023-05-28T10:58:26;6.50;;;4.00;;
13263;SDS011;6700;51.988;7.646;2023-05-28T11:01:04;8.32;;;3.60;;
13263;SDS011;6700;51.988;7.646;2023-05-28T11:03:38;7.90;;;4.20;;
13263;SDS011;6700;51.988;7.646;2023-05-28T11:06:13;10.00;;;6.82;;
13263;SDS011;6700;51.988;7.646;2023-05-28T11:08:41;7.20;;;4.45;;
13263;SDS011;6700;51.988;7.646;2023-05-28T11:11:10;6.18;;;4.55;;
13263;SDS011;6700;51.988;7.646;2023-05-28T11:13:44;6.68;;;4.15;;
13263;SDS011;6700;51.988;7.646;2023-05-28T11:16:12;9.77;;;4.60;;
13263;SDS011;6700;51.988;7.646;2023-05-28T11:19:02;8.10;;;4.38;;
13263;SDS011;6700;51.988;7.646;2023-05-28T11:21:31;10.68;;;4.63;;
13263;SDS011;6700;51.988;7.646;2023-05-28T11:24:02;7.75;;;4.07;;
13263;SDS011;6700;51.988;7.646;2023-05-28T11:26:32;7.72;;;4.20;;
13263;SDS011;6700;51.988;7.646;2023-05-28T11:28:59;8.25;;;4.15;;
13263;SDS011;6700;51.988;7.646;2023-05-28T11:31:28;8.77;;;4.13;;
13263;SDS011;6700;51.988;7.646;2023-05-28T11:33:55;8.20;;;4.43;;
13263;SDS011;6700;51.988;7.646;2023-05-28T11:36:23;7.38;;;4.05;;
13263;SDS011;6700;51.988;7.646;2023-05-28T11:39:00;8.25;;;4.00;;
13263;SDS011;6700;51.988;7.646;2023-05-28T11:41:29;5.38;;;4.00;;
13263;SDS011;6700;51.988;7.646;2023-05-28T11:43:56;8.73;;;4.53;;
13263;SDS011;6700;51.988;7.646;2023-05-28T11:46:23;7.35;;;4.65;;
13263;SDS011;6700;51.988;7.646;2023-05-28T11:48:50;11.70;;;4.90;;
13263;SDS011;6700;51.988;7.646;2023-05-28T11:51:20;8.02;;;4.22;;
13263;SDS011;6700;51.988;7.646;2023-05-28T11:53:47;10.05;;;4.45;;
13263;SDS011;6700;51.988;7.646;2023-05-28T11:56:14;9.27;;;4.82;;
13263;SDS011;6700;51.988;7.646;2023-05-28T11:58:45;8.15;;;4.53;;
13263;SDS011;6700;51.988;7.646;2023-05-28T12:01:15;6.00;;;3.80;;
13263;SDS011;6700;51.988;7.646;2023-05-28T12:03:43;9.23;;;3.75;;
13263;SDS011;6700;51.988;7.646;2023-05-28T12:06:11;11.38;;;4.47;;
13263;SDS011;6700;51.988;7.646;2023-05-28T12:08:46;8.43;;;4.30;;
13263;SDS011;6700;51.988;7.646;2023-05-28T12:11:14;7.18;;;4.07;;
13263;SDS011;6700;51.988;7.646;2023-05-28T12:13:41;7.43;;;4.25;;
13263;SDS011;6700;51.988;7.646;2023-05-28T12:16:11;8.35;;;3.97;;
13263;SDS011;6700;51.988;7.646;2023-05-28T12:18:42;8.18;;;4.00;;
13263;SDS011;6700;51.988;7.646;2023-05-28T12:21:09;7.82;;;3.95;;
13263;SDS011;6700;51.988;7.646;2023-05-28T12:23:45;11.68;;;4.35;;
13263;SDS011;6700;51.988;7.646;2023-05-28T12:26:13;7.95;;;5.07;;
13263;SDS011;6700;51.988;7.646;2023-05-28T12:28:41;15.10;;;9.55;;
13263;SDS011;6700;51.988;7.646;2023-05-28T12:31:08;11.50;;;5.43;;
13263;SDS011;6700;51.988;7.646;2023-05-28T12:33:35;8.65;;;4.63;;
13263;SDS011;6700;51.988;7.646;2023-05-28T12:36:02;6.85;;;3.88;;
13263;SDS011;6700;51.988;7.646;2023-05-28T12:38:29;10.50;;;4.75;;
13263;SDS011;6700;51.988;7.646;2023-05-28T12:40:56;7.65;;;4.75;;
13263;SDS011;6700;51.988;7.646;2023-05-28T12:43:24;6.97;;;4.40;;
13263;SDS011;6700;51.988;7.646;2023-05-28T12:45:51;7.72;;;5.00;;
13263;SDS011;6700;51.988;7.646;2023-05-28T12:48:18;8.85;;;4.95;;
13263;SDS011;6700;51.988;7.646;2023-05-28T12:50:48;7.10;;;5.28;;
13263;SDS011;6700;51.988;7.646;2023-05-28T12:53:15;8.15;;;4.47;;
13263;SDS011;6700;51.988;7.646;2023-05-28T12:55:43;7.88;;;4.38;;
13263;SDS011;6700;51.988;7.646;2023-05-28T12:58:16;8.05;;;4.70;;
13263;SDS011;6700;51.988;7.646;2023-05-28T13:00:43;10.25;;;4.45;;
13263;SDS011;6700;51.988;7.646;2023-05-28T13:03:10;8.90;;;4.75;;
13263;SDS011;6700;51.988;7.646;2023-05-28T13:05:39;5.50;;;3.85;;
13263;SDS011;6700;51.988;7.646;2023-05-28T13:08:05;10.57;;;4.25;;
13263;SDS011;6700;51.988;7.646;2023-05-28T13:10:32;6.20;;;3.83;;
13263;SDS011;6700;51.988;7.646;2023-05-28T13:12:59;8.48;;;4.15;;
13263;SDS011;6700;51.988;7.646;2023-05-28T13:15:26;6.45;;;4.75;;
13263;SDS011;6700;51.988;7.646;2023-05-28T13:17:53;10.40;;;4.38;;
13263;SDS011;6700;51.988;7.646;2023-05-28T13:20:20;5.25;;;4.07;;
13263;SDS011;6700;51.988;7.646;2023-05-28T13:22:46;7.15;;;4.03;;
13263;SDS011;6700;51.988;7.646;2023-05-28T13:25:13;7.47;;;3.95;;
13263;SDS011;6700;51.988;7.646;2023-05-28T13:27:40;6.60;;;4.18;;
13263;SDS011;6700;51.988;7.646;2023-05-28T13:30:07;6.70;;;4.00;;
13263;SDS011;6700;51.988;7.646;2023-05-28T13:32:34;7.20;;;4.20;;
13263;SDS011;6700;51.988;7.646;2023-05-28T13:37:43;5.90;;;3.78;;
13263;SDS011;6700;51.988;7.646;2023-05-28T13:40:11;7.25;;;4.07;;
13263;SDS011;6700;51.988;7.646;2023-05-28T13:42:40;7.65;;;4.05;;
13263;SDS011;6700;51.988;7.646;2023-05-28T13:45:07;7.38;;;4.93;;
13263;SDS011;6700;51.988;7.646;2023-05-28T13:47:36;11.35;;;4.93;;
13263;SDS011;6700;51.988;7.646;2023-05-28T13:50:03;9.80;;;4.13;;
13263;SDS011;6700;51.988;7.646;2023-05-28T13:52:31;7.40;;;4.60;;
13263;SDS011;6700;51.988;7.646;2023-05-28T13:54:58;6.70;;;4.40;;
13263;SDS011;6700;51.988;7.646;2023-05-28T13:57:24;8.38;;;4.38;;
13263;SDS011;6700;51.988;7.646;2023-05-28T13:59:51;9.63;;;4.60;;
13263;SDS011;6700;51.988;7.646;2023-05-28T14:02:18;8.75;;;4.97;;
13263;SDS011;6700;51.988;7.646;2023-05-28T14:04:44;9.18;;;4.15;;
13263;SDS011;6700;51.988;7.646;2023-05-28T14:07:11;7.70;;;4.88;;
13263;SDS011;6700;51.988;7.646;2023-05-28T14:09:38;10.07;;;5.32;;
13263;SDS011;6700;51.988;7.646;2023-05-28T14:12:05;11.25;;;4.57;;
13263;SDS011;6700;51.988;7.646;2023-05-28T14:14:46;5.28;;;4.38;;
13263;SDS011;6700;51.988;7.646;2023-05-28T14:17:12;9.30;;;4.43;;
13263;SDS011;6700;51.988;7.646;2023-05-28T14:19:39;8.57;;;4.00;;
13263;SDS011;6700;51.988;7.646;2023-05-28T14:22:06;8.10;;;4.20;;
13263;SDS011;6700;51.988;7.646;2023-05-28T14:24:33;5.85;;;3.60;;
13263;SDS011;6700;51.988;7.646;2023-05-28T14:27:00;7.82;;;4.03;;
13263;SDS011;6700;51.988;7.646;2023-05-28T14:29:28;10.05;;;4.55;;
13263;SDS011;6700;51.988;7.646;2023-05-28T14:31:54;7.53;;;4.82;;
13263;SDS011;6700;51.988;7.646;2023-05-28T14:34:21;9.55;;;3.95;;
13263;SDS011;6700;51.988;7.646;2023-05-28T14:36:48;8.65;;;4.60;;
13263;SDS011;6700;51.988;7.646;2023-05-28T14:39:14;8.60;;;4.88;;
13263;SDS011;6700;51.988;7.646;2023-05-28T14:41:41;9.40;;;4.53;;
13263;SDS011;6700;51.988;7.646;2023-05-28T14:44:08;19.50;;;16.20;;
13263;SDS011;6700;51.988;7.646;2023-05-28T14:46:37;9.23;;;5.15;;
13263;SDS011;6700;51.988;7.646;2023-05-28T14:49:03;10.07;;;4.40;;
13263;SDS011;6700;51.988;7.646;2023-05-28T14:51:31;7.38;;;4.75;;
13263;SDS011;6700;51.988;7.646;2023-05-28T14:53:58;10.00;;;4.78;;
13263;SDS011;6700;51.988;7.646;2023-05-28T14:56:24;9.88;;;4.95;;
13263;SDS011;6700;51.988;7.646;2023-05-28T14:58:52;7.70;;;4.80;;
13263;SDS011;6700;51.988;7.646;2023-05-28T15:01:18;6.78;;;4.28;;
13263;SDS011;6700;51.988;7.646;2023-05-28T15:03:46;7.03;;;4.68;;
13263;SDS011;6700;51.988;7.646;2023-05-28T15:06:13;11.35;;;4.70;;
13263;SDS011;6700;51.988;7.646;2023-05-28T15:08:39;16.05;;;9.43;;